Time;durP1;ratioP1;P1;durP2;ratioP2;P2;SDS_P1;SDS_P2;PMS_P1;PMS_P2;Temp;Humidity;BMP_temperature;BMP_pressure;BME280_temperature;BME280_humidity;BME280_pressure;Samples;Min_cycle;Max_cycle;Signal;HPM_P1;HPM_P2
2022/09/28 00:01:46;;;;;;;1.27;1.17;;;8.50;99.90;;;;;;5072907;28;20233;-66
2022/09/28 00:04:12;;;;;;;1.50;1.40;;;8.50;99.90;;;;;;5075983;28;20708;-65
2022/09/28 00:06:38;;;;;;;1.80;1.50;;;8.40;99.90;;;;;;5058110;28;20189;-65
2022/09/28 00:09:04;;;;;;;1.53;1.43;;;8.40;99.90;;;;;;5079352;28;20262;-65
2022/09/28 00:11:29;;;;;;;1.57;1.47;;;8.40;99.90;;;;;;5072303;28;20519;-66
2022/09/28 00:13:58;;;;;;;2.10;1.00;;;8.40;99.90;;;;;;5067805;28;20532;-65
2022/09/28 00:16:29;;;;;;;1.50;1.40;;;8.40;99.90;;;;;;5078184;28;20676;-65
2022/09/28 00:18:55;;;;;;;1.17;1.10;;;8.40;99.90;;;;;;5058052;28;20796;-66
2022/09/28 00:21:23;;;;;;;1.63;1.30;;;8.40;99.90;;;;;;5071746;28;20432;-65
2022/09/28 00:24:11;;;;;;;1.40;1.30;;;8.40;99.90;;;;;;5065163;28;20201;-66
2022/09/28 00:26:44;;;;;;;1.57;1.47;;;8.40;99.90;;;;;;5077745;28;20433;-66
2022/09/28 00:29:27;;;;;;;1.23;1.13;;;8.40;99.90;;;;;;5074048;28;20446;-64
2022/09/28 00:31:58;;;;;;;1.77;1.27;;;8.40;99.90;;;;;;5060444;28;20973;-65
2022/09/28 00:34:25;;;;;;;1.90;1.03;;;8.40;99.90;;;;;;5065611;28;20469;-66
2022/09/28 00:36:51;;;;;;;1.43;1.33;;;8.50;99.90;;;;;;5078299;28;20525;-66
2022/09/28 00:39:17;;;;;;;3.00;1.30;;;8.50;99.90;;;;;;5072315;28;20524;-65
2022/09/28 00:41:43;;;;;;;1.53;1.40;;;8.50;99.90;;;;;;5078833;28;20207;-66
2022/09/28 00:44:24;;;;;;;3.20;1.63;;;8.50;99.90;;;;;;5071781;28;20809;-66
2022/09/28 00:47:08;;;;;;;1.57;1.40;;;8.50;99.90;;;;;;5063733;28;20516;-65
2022/09/28 00:49:44;;;;;;;1.73;1.50;;;8.50;99.90;;;;;;5067274;28;20486;-66
2022/09/28 00:52:16;;;;;;;1.40;1.30;;;8.60;99.90;;;;;;5067611;28;20548;-65
2022/09/28 00:54:46;;;;;;;1.73;1.40;;;8.60;99.90;;;;;;5071797;28;20462;-65
2022/09/28 00:57:12;;;;;;;1.57;1.17;;;8.60;99.90;;;;;;5070335;28;20964;-66
2022/09/28 00:59:39;;;;;;;1.93;1.27;;;8.60;99.90;;;;;;5059103;28;20489;-66
2022/09/28 01:02:05;;;;;;;1.40;1.30;;;8.60;99.90;;;;;;5068089;28;20435;-66
2022/09/28 01:04:30;;;;;;;1.67;1.50;;;8.60;99.90;;;;;;5072590;28;20513;-66
2022/09/28 01:06:57;;;;;;;2.93;1.07;;;8.60;99.90;;;;;;5075978;28;20226;-65
2022/09/28 01:09:24;;;;;;;2.83;1.40;;;8.60;99.90;;;;;;5063051;28;20181;-66
2022/09/28 01:11:50;;;;;;;2.37;1.40;;;8.60;99.90;;;;;;5057158;28;20443;-65
2022/09/28 01:14:16;;;;;;;8.80;1.70;;;8.70;99.90;;;;;;5071203;28;20541;-65
2022/09/28 01:16:53;;;;;;;5.60;1.60;;;8.70;99.90;;;;;;5058952;28;20523;-65
2022/09/28 01:19:22;;;;;;;1.83;1.07;;;8.70;99.90;;;;;;5062502;28;20439;-65
2022/09/28 01:21:58;;;;;;;2.00;1.37;;;8.70;99.90;;;;;;5066907;28;20471;-65
2022/09/28 01:24:42;;;;;;;1.60;1.50;;;8.70;99.90;;;;;;5069600;28;20464;-65
2022/09/28 01:27:29;;;;;;;2.00;1.33;;;8.70;99.90;;;;;;5060227;28;20867;-66
2022/09/28 01:30:04;;;;;;;2.53;1.20;;;8.70;99.90;;;;;;5072221;28;20431;-64
2022/09/28 01:32:43;;;;;;;6.10;1.30;;;8.70;99.90;;;;;;5058713;28;20465;-65
2022/09/28 01:35:17;;;;;;;3.10;1.37;;;8.70;99.90;;;;;;5067369;28;20466;-66
2022/09/28 01:37:51;;;;;;;2.10;1.33;;;8.80;99.90;;;;;;5058604;28;20435;-66
2022/09/28 01:40:20;;;;;;;2.70;1.30;;;8.80;99.90;;;;;;5068906;28;20477;-65
2022/09/28 01:42:49;;;;;;;2.43;1.50;;;8.80;99.90;;;;;;5070969;28;20466;-66
2022/09/28 01:45:30;;;;;;;3.63;1.87;;;8.80;99.90;;;;;;5069536;28;20873;-66
2022/09/28 01:48:00;;;;;;;3.77;1.90;;;8.90;99.90;;;;;;5067731;28;20431;-66
2022/09/28 01:50:29;;;;;;;2.23;1.77;;;8.90;99.90;;;;;;5069572;28;20962;-65
2022/09/28 01:53:03;;;;;;;4.07;1.70;;;8.90;99.90;;;;;;5066820;28;20520;-65
2022/09/28 01:55:36;;;;;;;3.10;1.67;;;8.90;99.90;;;;;;5069731;28;20447;-65
2022/09/28 01:58:29;;;;;;;1.83;1.63;;;8.90;99.90;;;;;;5073692;28;20426;-64
2022/09/28 02:01:23;;;;;;;3.87;1.90;;;8.90;99.90;;;;;;5065266;28;20853;-66
2022/09/28 02:03:54;;;;;;;3.07;1.63;;;8.90;99.90;;;;;;5060252;28;20482;-64
2022/09/28 02:06:26;;;;;;;7.17;2.23;;;9.00;99.90;;;;;;5057412;28;20443;-66
2022/09/28 02:09:01;;;;;;;4.00;2.60;;;9.00;99.90;;;;;;5055077;28;20431;-66
2022/09/28 02:11:26;;;;;;;2.70;1.70;;;9.00;99.90;;;;;;5070021;28;20492;-66
2022/09/28 02:13:57;;;;;;;5.03;1.90;;;9.00;99.90;;;;;;5069414;28;20475;-66
2022/09/28 02:16:38;;;;;;;3.57;1.90;;;9.00;99.90;;;;;;5071590;28;20203;-65
2022/09/28 02:19:05;;;;;;;2.87;2.17;;;9.00;99.90;;;;;;5063980;28;20434;-66
2022/09/28 02:21:42;;;;;;;4.57;2.00;;;9.00;99.90;;;;;;5069580;28;20496;-66
2022/09/28 02:24:31;;;;;;;3.20;1.73;;;9.00;99.90;;;;;;5072360;28;20461;-65
2022/09/28 02:27:02;;;;;;;6.73;2.30;;;9.00;99.90;;;;;;5063238;28;20431;-65
2022/09/28 02:29:27;;;;;;;7.03;1.53;;;9.10;99.90;;;;;;5068668;28;20473;-66
2022/09/28 02:31:53;;;;;;;4.83;1.90;;;9.10;99.90;;;;;;5067146;28;20431;-66
2022/09/28 02:34:19;;;;;;;3.67;1.67;;;9.10;99.90;;;;;;5063458;28;20205;-65
2022/09/28 02:36:46;;;;;;;4.50;2.57;;;9.10;99.90;;;;;;5073031;28;20212;-66
2022/09/28 02:39:13;;;;;;;2.33;2.00;;;9.10;99.90;;;;;;5069173;28;20219;-66
2022/09/28 02:42:05;;;;;;;9.03;2.43;;;9.10;99.90;;;;;;5074822;28;20807;-65
2022/09/28 02:44:40;;;;;;;4.33;1.73;;;9.10;99.90;;;;;;5073791;28;20495;-66
2022/09/28 02:47:21;;;;;;;3.63;1.93;;;9.10;99.90;;;;;;5080094;28;20440;-66
2022/09/28 02:50:03;;;;;;;2.13;1.70;;;9.10;99.90;;;;;;5069101;28;20474;-66
2022/09/28 02:52:45;;;;;;;2.90;2.17;;;9.10;99.90;;;;;;5077776;28;20465;-66
2022/09/28 02:55:26;;;;;;;2.33;1.73;;;9.10;99.90;;;;;;5072992;28;20443;-65
2022/09/28 02:57:52;;;;;;;5.60;2.17;;;9.20;99.90;;;;;;5057375;28;20462;-64
2022/09/28 03:00:19;;;;;;;3.93;1.80;;;9.20;99.90;;;;;;5062204;28;20435;-65
2022/09/28 03:02:48;;;;;;;3.30;2.17;;;9.20;99.90;;;;;;5054431;28;20235;-66
2022/09/28 03:05:41;;;;;;;3.83;1.73;;;9.20;99.90;;;;;;5069163;28;20439;-66
2022/09/28 03:08:14;;;;;;;5.53;2.10;;;9.20;99.90;;;;;;5078381;28;20942;-66
2022/09/28 03:10:48;;;;;;;4.00;2.17;;;9.20;99.90;;;;;;5059244;28;20466;-66
2022/09/28 03:13:15;;;;;;;4.10;1.90;;;9.20;99.90;;;;;;5062182;28;20553;-65
2022/09/28 03:15:41;;;;;;;2.90;1.53;;;9.20;99.90;;;;;;5073599;28;20438;-65
2022/09/28 03:18:06;;;;;;;1.87;1.63;;;9.20;99.90;;;;;;5058258;28;20453;-66
2022/09/28 03:20:32;;;;;;;3.60;2.03;;;9.20;99.90;;;;;;5066244;28;20509;-66
2022/09/28 03:22:59;;;;;;;5.37;3.07;;;9.30;99.90;;;;;;5065688;28;20246;-66
2022/09/28 03:25:25;;;;;;;2.87;1.90;;;9.20;99.90;;;;;;5063730;28;20478;-66
2022/09/28 03:27:50;;;;;;;2.70;1.33;;;9.20;99.90;;;;;;5070948;28;20828;-66
2022/09/28 03:30:16;;;;;;;6.63;2.17;;;9.20;99.90;;;;;;5062831;28;20183;-65
2022/09/28 03:32:42;;;;;;;4.30;2.00;;;9.20;99.90;;;;;;5073748;28;20291;-66
2022/09/28 03:35:08;;;;;;;3.20;1.73;;;9.20;99.90;;;;;;5074494;28;20226;-66
2022/09/28 03:37:34;;;;;;;7.93;2.40;;;9.20;99.90;;;;;;5065942;28;20205;-65
2022/09/28 03:40:00;;;;;;;2.30;2.07;;;9.20;99.90;;;;;;5072203;28;20972;-66
2022/09/28 03:42:25;;;;;;;6.87;2.07;;;9.20;99.90;;;;;;5070467;28;20459;-66
2022/09/28 03:44:51;;;;;;;8.97;1.93;;;9.20;99.90;;;;;;5059476;28;20184;-66
2022/09/28 03:47:18;;;;;;;7.67;2.40;;;9.20;99.90;;;;;;5069925;28;20572;-66
2022/09/28 03:49:44;;;;;;;5.70;2.37;;;9.20;99.90;;;;;;5062999;28;20192;-65
2022/09/28 03:52:10;;;;;;;5.87;2.50;;;9.20;99.90;;;;;;5054420;28;20435;-65
2022/09/28 03:54:36;;;;;;;5.67;1.80;;;9.20;99.90;;;;;;5076884;28;20463;-66
2022/09/28 03:57:02;;;;;;;3.53;1.97;;;9.20;99.90;;;;;;5077531;28;20449;-66
2022/09/28 03:59:27;;;;;;;4.13;2.13;;;9.20;99.90;;;;;;5068281;28;20272;-67
2022/09/28 04:01:53;;;;;;;4.50;1.83;;;9.20;99.90;;;;;;5068781;28;20185;-67
2022/09/28 04:04:18;;;;;;;5.23;2.70;;;9.20;99.90;;;;;;5066664;22;20226;-72
2022/09/28 04:06:44;;;;;;;6.77;2.00;;;9.20;99.90;;;;;;5027802;28;20550;-71
2022/09/28 04:09:10;;;;;;;5.07;2.13;;;9.30;99.90;;;;;;5024424;28;20754;-71
2022/09/28 04:11:36;;;;;;;4.00;1.40;;;9.30;99.90;;;;;;5031386;28;20174;-70
2022/09/28 04:14:01;;;;;;;3.10;1.50;;;9.30;99.90;;;;;;5024515;28;21004;-71
2022/09/28 04:16:27;;;;;;;2.97;1.20;;;9.20;99.90;;;;;;5022522;28;20261;-70
2022/09/28 04:18:52;;;;;;;4.83;1.73;;;9.10;99.90;;;;;;5012130;28;20184;-70
2022/09/28 04:21:19;;;;;;;7.80;1.37;;;9.10;99.90;;;;;;5015895;28;20656;-70
2022/09/28 04:23:46;;;;;;;7.33;1.57;;;9.10;99.90;;;;;;5021381;28;20207;-71
2022/09/28 04:26:17;;;;;;;3.50;1.70;;;9.00;99.90;;;;;;5023035;28;20500;-71
2022/09/28 04:31:29;;;;;;;2.13;1.40;;;9.10;99.90;;;;;;5014417;28;20500;-71
2022/09/28 04:33:56;;;;;;;2.60;2.40;;;9.10;99.90;;;;;;5007344;28;20548;-70
2022/09/28 04:36:23;;;;;;;2.37;1.80;;;9.10;99.90;;;;;;4998712;28;20438;-70
2022/09/28 04:38:50;;;;;;;1.47;1.07;;;9.00;99.90;;;;;;5007774;28;20530;-70
2022/09/28 04:41:16;;;;;;;4.73;2.50;;;9.10;99.90;;;;;;5026364;28;20441;-70
2022/09/28 04:43:41;;;;;;;4.40;1.43;;;9.10;99.90;;;;;;5016373;28;20479;-70
2022/09/28 04:46:09;;;;;;;4.07;2.50;;;9.10;99.90;;;;;;4998564;28;20195;-71
2022/09/28 04:48:36;;;;;;;1.60;1.17;;;9.10;99.90;;;;;;5023439;28;20608;-70
2022/09/28 04:51:02;;;;;;;2.27;1.93;;;9.10;99.90;;;;;;5010030;28;21031;-71
2022/09/28 04:53:29;;;;;;;3.87;1.40;;;9.00;99.90;;;;;;5013757;28;20568;-70
2022/09/28 04:56:06;;;;;;;1.50;1.20;;;8.90;99.90;;;;;;5012318;28;20234;-70
2022/09/28 04:58:33;;;;;;;2.20;2.00;;;9.00;99.90;;;;;;5016422;28;20442;-70
2022/09/28 05:01:02;;;;;;;2.30;1.10;;;9.10;99.90;;;;;;5010194;28;20598;-70
2022/09/28 05:03:28;;;;;;;2.30;1.20;;;9.10;99.90;;;;;;5014471;28;20845;-70
2022/09/28 05:05:54;;;;;;;2.90;1.40;;;9.20;99.90;;;;;;5017279;28;20503;-71
2022/09/28 05:08:20;;;;;;;1.00;0.77;;;9.20;99.90;;;;;;5013514;28;20193;-70
2022/09/28 05:10:46;;;;;;;2.50;2.03;;;9.10;99.90;;;;;;5009671;28;20819;-70
2022/09/28 05:13:12;;;;;;;2.80;1.63;;;9.00;99.90;;;;;;5005239;28;20297;-70
2022/09/28 05:15:39;;;;;;;1.67;1.57;;;8.90;99.90;;;;;;5003261;28;20238;-70
2022/09/28 05:18:06;;;;;;;2.30;1.70;;;8.90;99.90;;;;;;4995164;28;20438;-70
2022/09/28 05:20:31;;;;;;;2.53;2.33;;;9.00;99.90;;;;;;4995905;28;20480;-70
2022/09/28 05:22:57;;;;;;;3.13;2.83;;;9.00;99.90;;;;;;5008323;28;20450;-70
2022/09/28 05:25:23;;;;;;;4.53;1.50;;;9.00;99.90;;;;;;5003462;28;20187;-70
2022/09/28 05:27:55;;;;;;;2.50;2.30;;;8.90;99.90;;;;;;5007075;28;20198;-70
2022/09/28 05:30:21;;;;;;;8.80;1.80;;;9.00;99.90;;;;;;5003031;28;20926;-71
2022/09/28 05:32:48;;;;;;;3.47;1.50;;;9.00;99.90;;;;;;4996744;28;20464;-70
2022/09/28 05:35:13;;;;;;;2.93;1.57;;;8.90;99.90;;;;;;5008199;28;20438;-70
2022/09/28 05:37:40;;;;;;;2.50;1.23;;;9.00;99.90;;;;;;5009028;28;20809;-71
2022/09/28 05:40:06;;;;;;;2.63;1.83;;;9.00;99.90;;;;;;5005964;28;20225;-70
2022/09/28 05:42:32;;;;;;;1.67;1.47;;;9.00;99.90;;;;;;5000032;28;20460;-70
2022/09/28 05:44:57;;;;;;;2.53;2.03;;;9.10;99.90;;;;;;4998367;28;20453;-70
2022/09/28 05:47:27;;;;;;;2.60;1.23;;;9.10;99.90;;;;;;5001141;28;20186;-70
2022/09/28 05:49:52;;;;;;;1.50;1.40;;;9.10;99.90;;;;;;5001637;28;20190;-70
2022/09/28 05:52:19;;;;;;;1.37;1.17;;;9.10;99.90;;;;;;5003779;28;20469;-70
2022/09/28 05:54:44;;;;;;;6.70;1.87;;;9.10;99.90;;;;;;5002358;28;20242;-71
2022/09/28 05:57:10;;;;;;;2.27;1.60;;;9.10;99.90;;;;;;5004614;28;20474;-71
2022/09/28 05:59:36;;;;;;;3.07;1.53;;;9.00;99.90;;;;;;5004192;28;20183;-70
2022/09/28 06:02:03;;;;;;;2.27;1.60;;;9.10;99.90;;;;;;5003788;28;20175;-70
2022/09/28 06:04:29;;;;;;;3.53;1.70;;;9.20;99.90;;;;;;5007386;28;20242;-70
2022/09/28 06:06:55;;;;;;;2.13;1.80;;;9.20;99.90;;;;;;5010381;28;20445;-70
2022/09/28 06:09:22;;;;;;;2.10;1.57;;;9.20;99.90;;;;;;5011803;28;20546;-69
2022/09/28 06:11:48;;;;;;;3.93;1.77;;;9.30;99.90;;;;;;4999557;28;20824;-70
2022/09/28 06:14:14;;;;;;;3.10;1.87;;;9.30;99.90;;;;;;5001608;28;20512;-71
2022/09/28 06:16:40;;;;;;;3.03;2.30;;;9.30;99.90;;;;;;5007173;28;20471;-70
2022/09/28 06:19:07;;;;;;;4.03;1.80;;;9.30;99.90;;;;;;5001091;28;20214;-70
2022/09/28 06:21:32;;;;;;;1.97;1.60;;;9.30;99.90;;;;;;4999178;28;20179;-70
2022/09/28 06:23:58;;;;;;;3.10;2.10;;;9.30;99.90;;;;;;5007222;28;20473;-70
2022/09/28 06:26:23;;;;;;;3.83;2.17;;;9.30;99.90;;;;;;5005431;28;20277;-69
2022/09/28 06:28:49;;;;;;;5.20;2.13;;;9.40;99.90;;;;;;5003940;28;21948;-70
2022/09/28 06:31:14;;;;;;;4.13;2.30;;;9.50;99.90;;;;;;5001623;28;20183;-70
2022/09/28 06:33:40;;;;;;;3.20;1.93;;;9.50;99.90;;;;;;5010475;28;20585;-70
2022/09/28 06:36:07;;;;;;;5.43;3.00;;;9.60;99.90;;;;;;5016147;28;20190;-69
2022/09/28 06:38:32;;;;;;;3.13;2.00;;;9.50;99.90;;;;;;5007507;28;20499;-71
2022/09/28 06:40:58;;;;;;;3.80;2.33;;;9.60;99.90;;;;;;5014451;28;20985;-71
2022/09/28 06:43:24;;;;;;;3.97;2.17;;;9.60;99.90;;;;;;5015183;28;20248;-70
2022/09/28 06:45:51;;;;;;;2.70;1.87;;;9.60;99.90;;;;;;5006539;28;20187;-70
2022/09/28 06:48:17;;;;;;;3.10;2.10;;;9.70;99.90;;;;;;5011083;28;20472;-70
2022/09/28 06:50:43;;;;;;;2.20;2.00;;;9.80;99.90;;;;;;5010647;28;20481;-70
2022/09/28 06:53:12;;;;;;;5.97;2.20;;;9.80;99.90;;;;;;4999121;28;20215;-71
2022/09/28 06:55:39;;;;;;;2.40;2.20;;;9.80;99.90;;;;;;5007703;28;20455;-70
2022/09/28 06:58:09;;;;;;;7.50;2.70;;;9.90;99.90;;;;;;5021355;28;20464;-71
2022/09/28 07:00:36;;;;;;;2.83;2.47;;;9.80;99.90;;;;;;5019586;28;20473;-70
2022/09/28 07:03:20;;;;;;;4.03;2.70;;;9.80;99.90;;;;;;4988832;28;20539;-70
2022/09/28 07:05:48;;;;;;;4.30;2.50;;;9.70;99.90;;;;;;4988640;28;20464;-71
2022/09/28 07:08:15;;;;;;;2.83;2.60;;;9.60;99.90;;;;;;5005813;28;20461;-70
2022/09/28 07:10:45;;;;;;;3.90;3.00;;;9.70;99.90;;;;;;5007640;28;20557;-70
2022/09/28 07:13:12;;;;;;;6.77;2.80;;;9.60;99.90;;;;;;5000553;28;20470;-70
2022/09/28 07:15:39;;;;;;;3.87;2.40;;;9.70;99.90;;;;;;5008661;28;20531;-70
2022/09/28 07:18:05;;;;;;;3.03;2.50;;;9.70;99.90;;;;;;5007887;28;20442;-71
2022/09/28 07:20:33;;;;;;;3.90;2.10;;;9.60;99.90;;;;;;5004862;28;20456;-70
2022/09/28 07:23:00;;;;;;;2.90;2.37;;;9.60;99.90;;;;;;5005869;28;20493;-70
2022/09/28 07:25:28;;;;;;;5.77;2.70;;;9.60;99.90;;;;;;5010335;28;20530;-70
2022/09/28 07:27:56;;;;;;;5.07;2.40;;;9.80;99.90;;;;;;5007090;28;20446;-70
2022/09/28 07:30:22;;;;;;;6.07;2.87;;;9.80;99.90;;;;;;5004243;28;20505;-69
2022/09/28 07:32:48;;;;;;;9.60;7.67;;;9.80;99.90;;;;;;5010937;28;20466;-70
2022/09/28 07:35:14;;;;;;;3.30;3.00;;;9.80;99.90;;;;;;5013592;28;21354;-70
2022/09/28 07:37:39;;;;;;;6.40;3.47;;;9.80;99.90;;;;;;5002935;28;20265;-70
2022/09/28 07:42:50;;;;;;;6.50;2.67;;;10.10;99.90;;;;;;5009151;28;20237;-70
2022/09/28 07:45:17;;;;;;;3.50;2.60;;;10.30;99.90;;;;;;5005840;28;20537;-69
2022/09/28 07:47:42;;;;;;;4.53;2.00;;;10.40;99.90;;;;;;5000853;28;20245;-70
2022/09/28 07:50:08;;;;;;;6.10;3.30;;;10.20;99.90;;;;;;5002581;28;20466;-70
2022/09/28 07:52:35;;;;;;;3.00;2.70;;;10.20;99.90;;;;;;5004680;28;20214;-70
2022/09/28 07:55:01;;;;;;;5.40;3.67;;;10.30;99.90;;;;;;5006561;28;20682;-68
2022/09/28 07:57:27;;;;;;;2.47;2.27;;;10.40;99.90;;;;;;5007815;28;20881;-70
2022/09/28 07:59:53;;;;;;;2.40;2.20;;;10.50;99.90;;;;;;5003723;28;20442;-68
2022/09/28 08:02:20;;;;;;;2.33;2.13;;;10.50;99.90;;;;;;5008247;28;20438;-68
2022/09/28 08:04:47;;;;;;;4.60;2.90;;;10.60;99.90;;;;;;5002467;28;20214;-68
2022/09/28 08:07:14;;;;;;;1.80;1.70;;;10.40;99.90;;;;;;5004801;28;20771;-68
2022/09/28 08:09:40;;;;;;;2.63;1.87;;;10.40;99.90;;;;;;5007434;28;20456;-68
2022/09/28 08:12:06;;;;;;;4.13;1.70;;;10.50;99.90;;;;;;5003910;28;20739;-68
2022/09/28 08:14:36;;;;;;;2.50;2.10;;;10.50;99.90;;;;;;4996588;28;20477;-68
2022/09/28 08:17:03;;;;;;;4.20;2.07;;;10.60;99.90;;;;;;5005550;28;20442;-69
2022/09/28 08:22:14;;;;;;;2.10;1.90;;;10.70;99.90;;;;;;5000563;28;20506;-69
2022/09/28 08:24:39;;;;;;;3.77;2.60;;;10.50;99.90;;;;;;5004104;28;20466;-69
2022/09/28 08:27:09;;;;;;;9.40;4.63;;;10.60;99.90;;;;;;5002283;28;20438;-69
2022/09/28 08:29:34;;;;;;;5.30;2.87;;;10.80;99.90;;;;;;5003382;28;20175;-70
2022/09/28 08:32:00;;;;;;;5.17;3.17;;;11.10;99.90;;;;;;4999041;28;20448;-70
2022/09/28 08:34:26;;;;;;;3.83;2.83;;;11.00;99.90;;;;;;5004568;28;20217;-70
2022/09/28 08:36:52;;;;;;;2.20;1.90;;;10.90;99.90;;;;;;5001273;28;20179;-69
2022/09/28 08:39:17;;;;;;;3.13;2.37;;;11.10;99.90;;;;;;5006771;28;20237;-69
2022/09/28 08:41:54;;;;;;;4.63;1.90;;;11.30;99.90;;;;;;5007969;28;20440;-68
2022/09/28 08:44:25;;;;;;;3.77;1.80;;;11.70;99.90;;;;;;5003828;28;20265;-69
2022/09/28 08:46:59;;;;;;;1.93;1.83;;;11.90;99.90;;;;;;4999173;28;20453;-73
2022/09/28 08:49:37;;;;;;;2.10;1.73;;;12.10;99.90;;;;;;5002931;28;20437;-68
2022/09/28 08:52:10;;;;;;;3.23;1.90;;;12.10;99.90;;;;;;5001009;28;20453;-68
2022/09/28 08:54:44;;;;;;;2.53;1.60;;;12.30;99.90;;;;;;5007695;28;20458;-68
2022/09/28 08:57:22;;;;;;;2.03;1.60;;;12.60;99.90;;;;;;5000624;28;20441;-68
2022/09/28 08:59:52;;;;;;;3.40;2.00;;;12.70;99.90;;;;;;5005041;28;20472;-68
2022/09/28 09:02:30;;;;;;;2.70;2.03;;;13.10;99.90;;;;;;5003115;28;20457;-68
2022/09/28 09:04:56;;;;;;;3.67;2.00;;;13.30;99.90;;;;;;5015147;28;20474;-68
2022/09/28 09:07:41;;;;;;;3.60;2.00;;;13.50;99.90;;;;;;5015736;28;20444;-68
2022/09/28 09:10:32;;;;;;;5.00;2.47;;;13.50;99.90;;;;;;5006998;28;20442;-69
2022/09/28 09:13:22;;;;;;;2.30;2.10;;;13.60;99.90;;;;;;5005050;28;20551;-68
2022/09/28 09:16:02;;;;;;;2.23;1.80;;;13.60;99.90;;;;;;4997281;28;20437;-69
2022/09/28 09:18:47;;;;;;;2.30;2.10;;;13.50;99.90;;;;;;5002219;28;21452;-68
2022/09/28 09:21:40;;;;;;;3.07;2.77;;;13.10;99.90;;;;;;5006820;28;20446;-69
2022/09/28 09:24:20;;;;;;;4.73;2.27;;;13.20;99.90;;;;;;5009337;28;20519;-68
2022/09/28 09:26:48;;;;;;;2.70;2.27;;;12.90;99.90;;;;;;4998491;28;20499;-69
2022/09/28 09:29:39;;;;;;;5.40;2.30;;;12.70;99.90;;;;;;4999992;28;20529;-69
2022/09/28 09:32:19;;;;;;;8.13;3.90;;;12.40;99.90;;;;;;4997178;28;20460;-68
2022/09/28 09:34:53;;;;;;;7.37;3.77;;;12.20;99.90;;;;;;4994993;28;20470;-70
2022/09/28 09:37:51;;;;;;;2.40;2.17;;;12.30;99.90;;;;;;4997614;28;20477;-70
2022/09/28 09:40:41;;;;;;;5.37;3.40;;;12.40;99.90;;;;;;5071096;28;20545;-68
2022/09/28 09:43:09;;;;;;;2.60;2.13;;;12.50;99.90;;;;;;5056189;28;22083;-68
2022/09/28 09:46:16;;;;;;;3.53;2.60;;;12.50;99.90;;;;;;5070385;28;20501;-66
2022/09/28 09:49:07;;;;;;;3.23;2.93;;;12.40;99.90;;;;;;5060163;28;20802;-68
2022/09/28 09:51:57;;;;;;;2.87;2.17;;;12.70;99.90;;;;;;5076782;28;20427;-69
2022/09/28 09:54:37;;;;;;;3.17;2.87;;;12.60;99.90;;;;;;5069221;28;21342;-68
2022/09/28 09:57:13;;;;;;;6.93;2.83;;;12.50;99.90;;;;;;5068135;28;20430;-67
2022/09/28 09:59:41;;;;;;;5.17;3.73;;;12.60;99.90;;;;;;5066088;28;20962;-67
2022/09/28 10:02:28;;;;;;;8.23;2.87;;;12.90;99.90;;;;;;5066785;28;21179;-67
2022/09/28 10:05:19;;;;;;;5.77;4.03;;;13.30;99.90;;;;;;5068659;28;20554;-67
2022/09/28 10:08:00;;;;;;;4.70;2.93;;;14.10;99.90;;;;;;5068878;28;20830;-67
2022/09/28 10:10:31;;;;;;;4.00;3.63;;;14.50;99.90;;;;;;5075151;28;20443;-67
2022/09/28 10:12:57;;;;;;;3.33;3.03;;;15.00;99.90;;;;;;5069382;28;20435;-67
2022/09/28 10:15:26;;;;;;;5.40;3.17;;;15.00;99.90;;;;;;5061521;28;20428;-67
2022/09/28 10:17:56;;;;;;;3.80;1.97;;;14.50;99.90;;;;;;5071983;28;20238;-67
2022/09/28 10:20:24;;;;;;;2.50;2.30;;;14.60;99.90;;;;;;5070175;28;20469;-67
2022/09/28 10:22:50;;;;;;;3.30;2.10;;;14.80;99.90;;;;;;5069141;28;20452;-68
2022/09/28 10:25:17;;;;;;;3.30;2.80;;;14.40;99.90;;;;;;5052510;28;20436;-68
2022/09/28 10:27:45;;;;;;;2.73;2.40;;;14.30;99.90;;;;;;5059674;28;20451;-67
2022/09/28 10:30:14;;;;;;;2.63;2.43;;;13.80;99.90;;;;;;5053828;28;20543;-73
2022/09/28 10:32:45;;;;;;;4.70;2.13;;;14.10;99.90;;;;;;5061896;28;20784;-68
2022/09/28 10:35:17;;;;;;;3.63;2.83;;;14.10;99.90;;;;;;5062378;28;20460;-68
2022/09/28 10:38:08;;;;;;;3.47;2.10;;;14.50;99.90;;;;;;5062070;28;20806;-67
2022/09/28 10:40:44;;;;;;;2.47;2.27;;;14.30;99.90;;;;;;5059983;28;20486;-69
2022/09/28 10:43:28;;;;;;;3.17;2.87;;;13.90;99.90;;;;;;5065951;28;20873;-67
2022/09/28 10:46:11;;;;;;;3.00;2.43;;;14.20;99.90;;;;;;5052183;28;20470;-68
2022/09/28 10:49:01;;;;;;;2.60;2.10;;;14.40;99.90;;;;;;5052004;28;20520;-68
2022/09/28 10:51:45;;;;;;;3.63;2.87;;;14.40;99.90;;;;;;5048644;28;20468;-69
2022/09/28 10:54:17;;;;;;;3.40;2.10;;;14.20;99.90;;;;;;5039582;28;20467;-69
2022/09/28 10:56:43;;;;;;;3.53;2.40;;;14.30;99.90;;;;;;5042973;28;20428;-69
2022/09/28 10:59:27;;;;;;;3.50;2.30;;;14.60;99.90;;;;;;5051532;28;20455;-69
2022/09/28 11:02:06;;;;;;;3.23;2.50;;;15.20;99.90;;;;;;5043375;28;20433;-70
2022/09/28 11:04:40;;;;;;;2.27;1.97;;;15.40;99.90;;;;;;5049290;28;20456;-69
2022/09/28 11:07:17;;;;;;;2.57;2.30;;;15.40;99.90;;;;;;5045831;28;20436;-69
2022/09/28 11:09:47;;;;;;;2.60;2.27;;;15.40;99.90;;;;;;5046937;28;20439;-69
2022/09/28 11:12:16;;;;;;;2.40;2.20;;;15.30;99.90;;;;;;5044821;28;20486;-69
2022/09/28 11:14:43;;;;;;;2.63;1.90;;;14.90;99.90;;;;;;5052096;28;20913;-68
2022/09/28 11:17:23;;;;;;;3.40;1.50;;;14.80;99.90;;;;;;5056664;28;20437;-69
2022/09/28 11:19:49;;;;;;;4.20;2.63;;;15.00;99.90;;;;;;5050045;28;20859;-68
2022/09/28 11:22:23;;;;;;;8.23;5.43;;;15.30;99.90;;;;;;5052530;28;20450;-70
2022/09/28 11:24:49;;;;;;;2.90;2.50;;;15.00;99.90;;;;;;5060115;28;20188;-68
2022/09/28 11:27:25;;;;;;;2.10;1.90;;;15.00;99.90;;;;;;5053487;28;20446;-69
2022/09/28 11:29:57;;;;;;;1.97;1.50;;;15.20;99.90;;;;;;5043877;28;20180;-69
2022/09/28 11:32:40;;;;;;;3.90;1.93;;;14.90;99.90;;;;;;5051717;28;20444;-69
2022/09/28 11:35:18;;;;;;;2.23;1.60;;;14.70;99.90;;;;;;5046209;28;20466;-70
2022/09/28 11:37:50;;;;;;;4.93;2.20;;;14.30;99.90;;;;;;5055651;28;20442;-69
2022/09/28 11:40:24;;;;;;;4.33;2.13;;;14.30;99.90;;;;;;5047262;28;20471;-69
2022/09/28 11:43:11;;;;;;;2.97;1.80;;;15.00;99.90;;;;;;5051360;28;20436;-70
2022/09/28 11:45:53;;;;;;;6.33;3.57;;;15.10;99.90;;;;;;5063026;28;20439;-70
2022/09/28 11:48:31;;;;;;;3.83;3.47;;;15.60;99.90;;;;;;5045492;28;20956;-69
2022/09/28 11:51:08;;;;;;;2.90;2.57;;;16.50;99.90;;;;;;5051025;28;20537;-69
2022/09/28 11:53:38;;;;;;;4.80;2.30;;;16.50;99.90;;;;;;5051230;28;20457;-69
2022/09/28 11:56:29;;;;;;;2.47;2.23;;;16.30;99.90;;;;;;5053230;28;20844;-68
2022/09/28 11:59:02;;;;;;;3.00;2.60;;;16.90;99.90;;;;;;5042294;28;20464;-69
2022/09/28 12:01:39;;;;;;;3.73;2.10;;;16.60;99.90;;;;;;5037310;28;20920;-68
2022/09/28 12:04:30;;;;;;;5.90;2.20;;;16.30;99.90;;;;;;5045107;28;20457;-69
2022/09/28 12:07:07;;;;;;;2.60;1.83;;;15.80;99.90;;;;;;5050274;28;20917;-69
2022/09/28 12:09:48;;;;;;;2.43;2.10;;;16.50;99.90;;;;;;5054973;28;20944;-69
2022/09/28 12:12:27;;;;;;;3.13;2.07;;;17.30;99.90;;;;;;5046389;28;20448;-69
2022/09/28 12:14:56;;;;;;;2.77;1.37;;;17.10;99.90;;;;;;5049326;28;20468;-69
2022/09/28 12:17:40;;;;;;;3.30;2.30;;;16.70;99.90;;;;;;5060406;28;20515;-69
2022/09/28 12:20:22;;;;;;;5.17;2.10;;;17.10;99.90;;;;;;5048215;28;20855;-69
2022/09/28 12:23:17;;;;;;;2.13;1.70;;;17.30;99.90;;;;;;5043018;28;20527;-69
2022/09/28 12:25:47;;;;;;;3.30;2.10;;;17.10;99.90;;;;;;5044083;28;20873;-69
2022/09/28 12:28:23;;;;;;;2.73;1.87;;;17.30;99.90;;;;;;5040486;28;20452;-70
2022/09/28 12:30:50;;;;;;;8.30;4.70;;;17.30;99.90;;;;;;5055992;28;20438;-69
2022/09/28 12:33:16;;;;;;;5.23;3.13;;;17.20;99.90;;;;;;5045906;28;20460;-69
2022/09/28 12:35:49;;;;;;;2.77;2.57;;;17.10;99.90;;;;;;5048828;28;20464;-72
2022/09/28 12:38:37;;;;;;;3.17;1.87;;;17.20;99.90;;;;;;5050855;28;20178;-68
2022/09/28 12:41:23;;;;;;;2.70;1.80;;;17.40;99.90;;;;;;5052027;28;20907;-68
2022/09/28 12:44:09;;;;;;;3.20;2.30;;;17.70;99.90;;;;;;5044378;28;20510;-70
2022/09/28 12:47:18;;;;;;;2.33;2.13;;;17.00;99.90;;;;;;5061050;28;20435;-69
2022/09/28 12:50:17;;;;;;;3.07;1.90;;;16.80;99.90;;;;;;5051387;28;20823;-69
2022/09/28 12:53:24;;;;;;;2.03;1.73;;;16.70;99.90;;;;;;5036009;28;20510;-69
2022/09/28 12:55:50;;;;;;;2.03;1.67;;;16.50;99.90;;;;;;5036652;28;20493;-69
2022/09/28 12:58:42;;;;;;;2.20;1.90;;;15.60;99.90;;;;;;5046028;28;20436;-69
2022/09/28 13:01:48;;;;;;;1.70;1.60;;;15.30;99.90;;;;;;5055376;28;20265;-68
2022/09/28 13:04:31;;;;;;;3.10;2.13;;;15.40;99.90;;;;;;5049839;28;20858;-68
2022/09/28 13:07:22;;;;;;;2.10;2.00;;;15.60;99.90;;;;;;5056307;28;20447;-68
2022/09/28 13:10:06;;;;;;;4.87;1.97;;;15.40;99.90;;;;;;5047738;28;20807;-69
2022/09/28 13:12:51;;;;;;;1.80;1.70;;;15.50;99.90;;;;;;5056796;28;20531;-69
2022/09/28 13:15:47;;;;;;;2.30;1.53;;;15.80;99.90;;;;;;5050463;28;20432;-69
2022/09/28 13:18:37;;;;;;;2.30;2.10;;;16.70;99.90;;;;;;5051733;28;20468;-69
2022/09/28 13:21:30;;;;;;;2.53;1.67;;;16.60;99.90;;;;;;5055035;28;20448;-71
2022/09/28 13:23:59;;;;;;;2.90;1.70;;;16.30;99.90;;;;;;5045911;28;20509;-69
2022/09/28 13:26:30;;;;;;;4.83;3.90;;;16.00;99.90;;;;;;5053819;28;20452;-71
2022/09/28 13:29:08;;;;;;;4.60;1.83;;;15.80;99.90;;;;;;5055408;28;20447;-69